Time;durP1;ratioP1;P1;durP2;ratioP2;P2;SDS_P1;SDS_P2;PMS_P1;PMS_P2;Temp;Humidity;BMP_temperature;BMP_pressure;BME280_temperature;BME280_humidity;BME280_pressure;Samples;Min_cycle;Max_cycle;Signal;HPM_P1;HPM_P2
2022/06/19 00:04:39;;;;;;;13.63;7.75;;;;;;;;;;10401533;28;20108;-73
2022/06/19 00:09:40;;;;;;;9.10;7.25;;;;;;;;;;10362464;28;20160;-74
2022/06/19 00:14:40;;;;;;;13.48;7.10;;;;;;;;;;10358827;28;20033;-73
2022/06/19 00:19:40;;;;;;;12.32;8.65;;;;;;;;;;10341886;28;20022;-73
2022/06/19 00:24:41;;;;;;;12.00;7.55;;;;;;;;;;10341961;28;20022;-75
2022/06/19 00:29:41;;;;;;;8.83;7.23;;;;;;;;;;10340769;28;20154;-74
2022/06/19 00:34:41;;;;;;;12.73;8.23;;;;;;;;;;10342643;28;20116;-74
2022/06/19 00:39:42;;;;;;;14.18;8.38;;;;;;;;;;10335954;28;20030;-72
2022/06/19 00:44:43;;;;;;;13.40;8.40;;;;;;;;;;10339709;28;20049;-71
2022/06/19 00:49:49;;;;;;;12.05;8.48;;;;;;;;;;10341482;28;20400;-76
2022/06/19 00:55:01;;;;;;;11.02;7.90;;;;;;;;;;10359006;28;20452;-75
2022/06/19 01:00:06;;;;;;;9.35;7.20;;;;;;;;;;10353573;28;20018;-75
2022/06/19 01:05:06;;;;;;;12.90;7.97;;;;;;;;;;10356280;28;20056;-72
2022/06/19 01:10:07;;;;;;;9.40;6.75;;;;;;;;;;10376071;28;20133;-77
2022/06/19 01:15:09;;;;;;;9.20;7.20;;;;;;;;;;10359431;28;20026;-78
2022/06/19 01:20:11;;;;;;;10.18;6.38;;;;;;;;;;10359545;28;20084;-78
2022/06/19 01:25:17;;;;;;;9.85;6.57;;;;;;;;;;10366656;28;20057;-74
2022/06/19 01:30:18;;;;;;;10.27;6.15;;;;;;;;;;10347305;28;20028;-74
2022/06/19 01:35:20;;;;;;;7.88;5.70;;;;;;;;;;10353488;28;20025;-73
2022/06/19 01:40:27;;;;;;;13.63;6.43;;;;;;;;;;10354335;28;20506;-73
2022/06/19 01:45:27;;;;;;;7.65;5.47;;;;;;;;;;10379696;28;20022;-73
2022/06/19 01:50:28;;;;;;;7.10;5.68;;;;;;;;;;10365106;28;20026;-77
2022/06/19 01:55:29;;;;;;;16.05;6.00;;;;;;;;;;10363858;28;20018;-75
2022/06/19 02:00:30;;;;;;;9.77;6.63;;;;;;;;;;10370821;28;20476;-72
2022/06/19 02:05:31;;;;;;;11.20;6.55;;;;;;;;;;10363602;28;20030;-72
2022/06/19 02:10:31;;;;;;;10.85;7.22;;;;;;;;;;10380240;28;20137;-72
2022/06/19 02:15:32;;;;;;;14.32;6.95;;;;;;;;;;10387704;28;20468;-76
2022/06/19 02:20:32;;;;;;;9.30;5.90;;;;;;;;;;10380735;28;20420;-71
2022/06/19 02:25:35;;;;;;;10.57;6.05;;;;;;;;;;10397119;28;20272;-74
2022/06/19 02:30:36;;;;;;;11.80;6.72;;;;;;;;;;10384823;28;20105;-77
2022/06/19 02:35:36;;;;;;;9.37;6.23;;;;;;;;;;10406804;28;20084;-73
2022/06/19 02:40:55;;;;;;;12.07;6.13;;;;;;;;;;10391377;28;20017;-75
2022/06/19 02:45:56;;;;;;;12.20;7.00;;;;;;;;;;10398146;28;20025;-72
2022/06/19 02:50:58;;;;;;;10.73;6.55;;;;;;;;;;10386576;28;20025;-72
2022/06/19 02:55:58;;;;;;;9.20;5.78;;;;;;;;;;10406740;28;20034;-73
2022/06/19 03:00:58;;;;;;;10.10;6.30;;;;;;;;;;10386692;28;20025;-76
2022/06/19 03:05:59;;;;;;;9.57;6.22;;;;;;;;;;10403889;28;20040;-73
2022/06/19 03:11:02;;;;;;;9.38;6.78;;;;;;;;;;10402739;28;20065;-76
2022/06/19 03:16:04;;;;;;;12.70;6.85;;;;;;;;;;10389412;28;20026;-75
2022/06/19 03:21:05;;;;;;;11.18;6.15;;;;;;;;;;10387698;28;20058;-74
2022/06/19 03:26:05;;;;;;;8.90;5.55;;;;;;;;;;10389671;28;20116;-73
2022/06/19 03:31:06;;;;;;;9.73;5.55;;;;;;;;;;10405092;28;20025;-72
2022/06/19 03:36:06;;;;;;;10.25;7.68;;;;;;;;;;10401722;28;21110;-72
2022/06/19 03:41:06;;;;;;;9.00;6.30;;;;;;;;;;10376890;28;20014;-77
2022/06/19 03:46:12;;;;;;;12.73;6.07;;;;;;;;;;10380458;28;20014;-72
2022/06/19 03:51:14;;;;;;;7.72;5.35;;;;;;;;;;10394696;28;20507;-72
2022/06/19 03:56:16;;;;;;;7.40;5.35;;;;;;;;;;10385517;28;20032;-72
2022/06/19 04:01:18;;;;;;;9.40;5.45;;;;;;;;;;10382640;28;20024;-70
2022/06/19 04:06:19;;;;;;;8.40;5.47;;;;;;;;;;10370797;28;20022;-71
2022/06/19 04:11:21;;;;;;;6.18;4.53;;;;;;;;;;10385429;28;20041;-71
2022/06/19 04:16:23;;;;;;;7.85;4.95;;;;;;;;;;10397703;28;20091;-72
2022/06/19 04:21:25;;;;;;;6.35;4.43;;;;;;;;;;10396392;28;20095;-74
2022/06/19 04:26:27;;;;;;;5.88;3.80;;;;;;;;;;10381796;28;20491;-74
2022/06/19 04:31:27;;;;;;;5.65;3.72;;;;;;;;;;10382366;28;20013;-77
2022/06/19 04:36:28;;;;;;;6.07;4.37;;;;;;;;;;10395225;28;20029;-75
2022/06/19 04:41:31;;;;;;;7.30;4.25;;;;;;;;;;10409809;28;20487;-72
2022/06/19 04:46:31;;;;;;;5.10;3.80;;;;;;;;;;10382056;28;20285;-74
2022/06/19 04:51:32;;;;;;;6.13;3.88;;;;;;;;;;10399010;28;20029;-73
2022/06/19 04:56:33;;;;;;;5.55;3.88;;;;;;;;;;10400017;28;20021;-72
2022/06/19 05:01:37;;;;;;;4.55;3.95;;;;;;;;;;10408731;28;20028;-74
2022/06/19 05:06:38;;;;;;;5.38;3.67;;;;;;;;;;10380829;28;20010;-72
2022/06/19 05:11:38;;;;;;;5.32;3.38;;;;;;;;;;10379431;28;20064;-73
2022/06/19 05:16:38;;;;;;;5.80;4.20;;;;;;;;;;10380430;28;20383;-74
2022/06/19 05:21:39;;;;;;;7.95;4.72;;;;;;;;;;10380142;28;20145;-72
2022/06/19 05:26:40;;;;;;;7.25;4.82;;;;;;;;;;10380483;28;20028;-76
2022/06/19 05:31:40;;;;;;;5.38;4.38;;;;;;;;;;10396847;28;20033;-72
2022/06/19 05:36:40;;;;;;;5.85;4.40;;;;;;;;;;10396948;28;20037;-74
2022/06/19 05:41:41;;;;;;;9.02;4.70;;;;;;;;;;10380709;28;20025;-75
2022/06/19 05:46:44;;;;;;;7.90;4.50;;;;;;;;;;10399400;28;20022;-76
2022/06/19 05:51:44;;;;;;;3.97;3.58;;;;;;;;;;10395373;28;20131;-74
2022/06/19 05:56:44;;;;;;;6.60;4.20;;;;;;;;;;10398556;28;20036;-71
2022/06/19 06:01:45;;;;;;;6.57;3.60;;;;;;;;;;10399908;28;20033;-72
2022/06/19 06:06:45;;;;;;;5.00;3.40;;;;;;;;;;10398957;28;20032;-72
2022/06/19 06:11:45;;;;;;;5.70;3.53;;;;;;;;;;10400712;28;20373;-71
2022/06/19 06:16:45;;;;;;;5.30;3.73;;;;;;;;;;10389698;28;20037;-75
2022/06/19 06:21:46;;;;;;;5.05;3.00;;;;;;;;;;10403363;28;20534;-75
2022/06/19 06:26:46;;;;;;;3.92;2.35;;;;;;;;;;10396547;28;20475;-71
2022/06/19 06:31:46;;;;;;;5.10;3.35;;;;;;;;;;10403810;28;20566;-76
2022/06/19 06:36:47;;;;;;;9.35;3.40;;;;;;;;;;10393842;28;20037;-72
2022/06/19 06:41:47;;;;;;;5.67;2.93;;;;;;;;;;10391642;28;20068;-71
2022/06/19 06:46:47;;;;;;;3.58;2.40;;;;;;;;;;10408588;28;20033;-73
2022/06/19 06:51:48;;;;;;;3.27;1.93;;;;;;;;;;10384260;28;20480;-70
2022/06/19 06:56:48;;;;;;;11.98;3.25;;;;;;;;;;10406920;28;20021;-75
2022/06/19 07:01:48;;;;;;;5.32;2.08;;;;;;;;;;10385841;28;20506;-72
2022/06/19 07:06:48;;;;;;;2.08;1.25;;;;;;;;;;10402508;28;20045;-74
2022/06/19 07:11:49;;;;;;;5.22;1.65;;;;;;;;;;10407217;28;20099;-76
2022/06/19 07:16:49;;;;;;;1.73;1.30;;;;;;;;;;10391816;28;20339;-73
2022/06/19 07:21:49;;;;;;;4.85;2.05;;;;;;;;;;10382600;28;20030;-72
2022/06/19 07:26:49;;;;;;;3.17;1.52;;;;;;;;;;10381549;28;20431;-75
2022/06/19 07:31:50;;;;;;;1.42;0.70;;;;;;;;;;10381923;28;20511;-76
2022/06/19 07:36:50;;;;;;;10.23;0.80;;;;;;;;;;10380816;28;20083;-71
2022/06/19 07:41:51;;;;;;;1.23;0.77;;;;;;;;;;10401212;28;20120;-74
2022/06/19 07:52:10;;;;;;;3.00;1.13;;;;;;;;;;10389583;28;20092;-72
2022/06/19 07:57:10;;;;;;;0.95;0.85;;;;;;;;;;10370301;28;20021;-70
2022/06/19 08:02:10;;;;;;;1.13;0.82;;;;;;;;;;10387484;28;20578;-71
2022/06/19 08:07:14;;;;;;;1.20;0.80;;;;;;;;;;10389717;28;20130;-71
2022/06/19 08:12:15;;;;;;;1.05;0.95;;;;;;;;;;10370678;28;20503;-73
2022/06/19 08:17:15;;;;;;;1.70;0.80;;;;;;;;;;10400752;28;20033;-72
2022/06/19 08:22:15;;;;;;;1.45;0.75;;;;;;;;;;10376538;28;20553;-71
2022/06/19 08:27:15;;;;;;;2.70;0.80;;;;;;;;;;10385808;28;20013;-71
2022/06/19 08:32:16;;;;;;;0.88;0.50;;;;;;;;;;10396247;28;20037;-71
2022/06/19 08:37:16;;;;;;;7.87;1.33;;;;;;;;;;10379436;28;20047;-72
2022/06/19 08:42:21;;;;;;;1.73;0.60;;;;;;;;;;10395284;28;20017;-71
2022/06/19 08:47:44;;;;;;;4.75;1.10;;;;;;;;;;10378054;28;20381;-70
2022/06/19 08:52:47;;;;;;;2.53;0.80;;;;;;;;;;10379746;28;20018;-72
2022/06/19 08:57:53;;;;;;;3.70;0.60;;;;;;;;;;10397369;28;20087;-75
2022/06/19 09:02:54;;;;;;;1.05;0.40;;;;;;;;;;10377656;28;20091;-72
2022/06/19 09:07:57;;;;;;;2.67;0.80;;;;;;;;;;10377535;28;20083;-71
2022/06/19 09:13:00;;;;;;;2.50;0.65;;;;;;;;;;10378448;28;20052;-77
2022/06/19 09:18:02;;;;;;;0.73;0.55;;;;;;;;;;10379351;28;20079;-72
2022/06/19 09:23:12;;;;;;;5.18;0.60;;;;;;;;;;10376295;28;20026;-78
2022/06/19 09:28:18;;;;;;;1.20;0.32;;;;;;;;;;10377862;28;20112;-71
2022/06/19 09:33:42;;;;;;;0.52;0.50;;;;;;;;;;10378523;28;20131;-73
2022/06/19 09:38:55;;;;;;;0.70;0.50;;;;;;;;;;10394770;28;20032;-71
2022/06/19 09:44:01;;;;;;;1.23;0.57;;;;;;;;;;10376847;28;20476;-72
2022/06/19 09:49:11;;;;;;;9.38;0.90;;;;;;;;;;10395945;28;20036;-74
2022/06/19 09:54:22;;;;;;;1.25;0.50;;;;;;;;;;10377844;28;20064;-73
2022/06/19 09:59:22;;;;;;;0.82;0.57;;;;;;;;;;10383494;28;20017;-73
2022/06/19 10:04:41;;;;;;;2.45;0.60;;;;;;;;;;10378361;28;20021;-73
2022/06/19 10:09:57;;;;;;;2.72;0.70;;;;;;;;;;10376813;28;20052;-73
2022/06/19 10:15:00;;;;;;;4.00;0.88;;;;;;;;;;10378897;28;20026;-72
2022/06/19 10:20:16;;;;;;;2.08;0.60;;;;;;;;;;10384845;28;20488;-73
2022/06/19 10:25:17;;;;;;;1.50;0.50;;;;;;;;;;10401820;28;21172;-75
2022/06/19 10:30:22;;;;;;;0.38;0.30;;;;;;;;;;10390943;28;20681;-75
2022/06/19 10:35:36;;;;;;;6.20;0.50;;;;;;;;;;10382650;28;20021;-73
2022/06/19 10:40:36;;;;;;;1.20;0.77;;;;;;;;;;10403866;28;20075;-73
2022/06/19 10:45:49;;;;;;;2.63;0.70;;;;;;;;;;10408317;28;20529;-74
2022/06/19 10:50:55;;;;;;;0.73;0.60;;;;;;;;;;10390981;28;20383;-72
2022/06/19 10:55:55;;;;;;;0.40;0.30;;;;;;;;;;10389902;28;20032;-75
2022/06/19 11:00:57;;;;;;;0.57;0.30;;;;;;;;;;10389358;28;20045;-72
2022/06/19 11:06:01;;;;;;;0.93;0.55;;;;;;;;;;10388080;28;20025;-71
2022/06/19 11:11:02;;;;;;;0.63;0.57;;;;;;;;;;10386011;28;20037;-77
2022/06/19 11:16:04;;;;;;;1.33;0.70;;;;;;;;;;10404225;28;20530;-72
2022/06/19 11:21:15;;;;;;;2.88;0.60;;;;;;;;;;10397227;28;20467;-73
2022/06/19 11:26:25;;;;;;;1.20;0.75;;;;;;;;;;10408958;28;20082;-73
2022/06/19 11:31:25;;;;;;;4.72;1.02;;;;;;;;;;10389404;28;20084;-72
2022/06/19 11:36:28;;;;;;;1.98;1.00;;;;;;;;;;10395287;28;20171;-72
2022/06/19 11:41:28;;;;;;;3.58;0.63;;;;;;;;;;10394704;28;20040;-76
2022/06/19 11:46:30;;;;;;;0.95;0.68;;;;;;;;;;10397470;28;20036;-73
2022/06/19 11:51:31;;;;;;;2.83;0.90;;;;;;;;;;10396666;28;20122;-73
2022/06/19 11:56:33;;;;;;;1.53;0.60;;;;;;;;;;10386434;28;20171;-74
2022/06/19 12:01:38;;;;;;;0.75;0.75;;;;;;;;;;10379314;28;20021;-72
2022/06/19 12:06:48;;;;;;;1.73;0.60;;;;;;;;;;10378776;28;20033;-74
2022/06/19 12:11:55;;;;;;;1.65;0.90;;;;;;;;;;10407058;28;20040;-72
2022/06/19 12:17:19;;;;;;;1.45;0.65;;;;;;;;;;10386711;28;20052;-75
2022/06/19 12:22:42;;;;;;;0.85;0.63;;;;;;;;;;10382286;28;20064;-73
2022/06/19 12:27:52;;;;;;;3.13;0.70;;;;;;;;;;10382339;28;20041;-75
2022/06/19 12:32:53;;;;;;;0.80;0.80;;;;;;;;;;10409107;28;20061;-73
2022/06/19 12:37:54;;;;;;;2.92;0.85;;;;;;;;;;10371392;28;20036;-76
2022/06/19 12:42:54;;;;;;;1.85;1.00;;;;;;;;;;10385791;28;20018;-72
2022/06/19 12:48:14;;;;;;;0.90;0.80;;;;;;;;;;10406555;28;20137;-73
2022/06/19 12:53:32;;;;;;;1.95;0.80;;;;;;;;;;10407422;28;20025;-74
2022/06/19 12:58:48;;;;;;;2.65;0.88;;;;;;;;;;10390368;28;20029;-74
2022/06/19 13:03:57;;;;;;;0.93;0.77;;;;;;;;;;10405265;28;20506;-74
2022/06/19 13:08:57;;;;;;;1.58;0.70;;;;;;;;;;10389117;28;20507;-71
2022/06/19 13:14:05;;;;;;;0.60;0.60;;;;;;;;;;10399698;28;20024;-71
2022/06/19 13:19:10;;;;;;;0.85;0.73;;;;;;;;;;10382961;28;20029;-71
2022/06/19 13:24:24;;;;;;;2.70;0.77;;;;;;;;;;10383126;28;20339;-74
2022/06/19 13:29:49;;;;;;;1.80;0.80;;;;;;;;;;10381872;28;20078;-72
2022/06/19 13:34:52;;;;;;;1.27;0.90;;;;;;;;;;10390043;28;20469;-76
2022/06/19 13:40:02;;;;;;;0.80;0.60;;;;;;;;;;10409797;28;20029;-71
2022/06/19 13:45:21;;;;;;;1.60;0.80;;;;;;;;;;10408601;28;20029;-72
2022/06/19 13:50:41;;;;;;;4.38;0.80;;;;;;;;;;10410464;28;20516;-73
2022/06/19 13:55:54;;;;;;;1.00;0.80;;;;;;;;;;10409783;28;20056;-72
2022/06/19 14:01:03;;;;;;;4.25;1.00;;;;;;;;;;10407081;28;20114;-72
2022/06/19 14:06:03;;;;;;;1.23;1.10;;;;;;;;;;10398866;28;20481;-72
2022/06/19 14:11:09;;;;;;;4.70;0.87;;;;;;;;;;10381395;28;20041;-71
2022/06/19 14:16:09;;;;;;;1.67;0.95;;;;;;;;;;10387850;28;20033;-75
2022/06/19 14:21:09;;;;;;;3.83;0.98;;;;;;;;;;10385169;28;20044;-77
2022/06/19 14:26:22;;;;;;;2.88;1.13;;;;;;;;;;10391074;28;20419;-75
2022/06/19 14:31:25;;;;;;;0.93;0.65;;;;;;;;;;10373713;28;20025;-75
2022/06/19 14:36:31;;;;;;;2.08;1.23;;;;;;;;;;10385553;28;20056;-73
2022/06/19 14:41:35;;;;;;;3.88;0.70;;;;;;;;;;10405902;28;20132;-74
2022/06/19 14:46:54;;;;;;;2.15;0.90;;;;;;;;;;10385174;28;20018;-73
2022/06/19 14:52:17;;;;;;;1.27;0.88;;;;;;;;;;10403480;28;20025;-75
2022/06/19 14:57:36;;;;;;;2.58;1.00;;;;;;;;;;10387002;28;20542;-75
2022/06/19 15:02:54;;;;;;;1.00;0.80;;;;;;;;;;10400683;28;20029;-74
2022/06/19 15:08:03;;;;;;;1.70;0.90;;;;;;;;;;10364636;28;20033;-71
2022/06/19 15:13:33;;;;;;;4.30;2.35;;;;;;;;;;10346208;28;1152067;-75
2022/06/19 15:18:35;;;;;;;1.80;1.10;;;;;;;;;;10390123;28;20139;-73
2022/06/19 15:23:37;;;;;;;1.60;1.23;;;;;;;;;;10405145;28;20115;-76
2022/06/19 15:28:43;;;;;;;1.40;1.02;;;;;;;;;;10403950;28;20017;-74
2022/06/19 15:33:51;;;;;;;2.88;1.40;;;;;;;;;;10401929;28;20017;-73
2022/06/19 15:43:55;;;;;;;3.30;1.70;;;;;;;;;;10408309;28;20122;-77
2022/06/19 15:48:56;;;;;;;2.22;1.40;;;;;;;;;;10386697;28;20022;-76
2022/06/19 15:54:20;;;;;;;5.03;1.00;;;;;;;;;;10385255;28;20021;-74
2022/06/19 15:59:25;;;;;;;3.30;1.85;;;;;;;;;;10388337;28;20037;-76
2022/06/19 16:04:35;;;;;;;8.18;3.42;;;;;;;;;;10385332;28;20511;-77
2022/06/19 16:09:49;;;;;;;11.32;4.10;;;;;;;;;;10399452;28;20207;-77
2022/06/19 16:15:07;;;;;;;4.55;1.30;;;;;;;;;;10402139;28;20413;-80
2022/06/19 16:20:19;;;;;;;1.30;1.10;;;;;;;;;;10381672;28;20029;-77
2022/06/19 16:25:22;;;;;;;2.88;1.33;;;;;;;;;;10383208;28;20116;-79
2022/06/19 16:30:31;;;;;;;4.00;1.50;;;;;;;;;;10394128;28;20029;-76
2022/06/19 16:46:22;;;;;;;3.40;1.70;;;;;;;;;;10393926;28;20025;-75
2022/06/19 16:51:24;;;;;;;2.35;1.58;;;;;;;;;;10386073;28;20029;-75
2022/06/19 16:56:27;;;;;;;2.05;1.45;;;;;;;;;;10389137;28;20129;-72
2022/06/19 17:01:29;;;;;;;3.88;1.77;;;;;;;;;;10373880;28;20032;-73
2022/06/19 17:06:31;;;;;;;4.75;1.83;;;;;;;;;;10381670;28;20260;-74
2022/06/19 17:11:34;;;;;;;3.03;1.63;;;;;;;;;;10360983;28;20092;-76
2022/06/19 17:16:35;;;;;;;2.28;1.63;;;;;;;;;;10371344;28;20417;-77
2022/06/19 17:21:41;;;;;;;4.82;1.30;;;;;;;;;;10395420;28;20079;-77
2022/06/19 17:26:42;;;;;;;3.47;1.50;;;;;;;;;;10365278;28;20033;-76
2022/06/19 17:31:44;;;;;;;2.17;1.10;;;;;;;;;;10372022;28;20112;-78
2022/06/19 17:36:45;;;;;;;1.83;1.15;;;;;;;;;;10365130;28;20439;-80
2022/06/19 17:41:47;;;;;;;4.67;1.60;;;;;;;;;;10369139;28;20026;-73
2022/06/19 17:47:07;;;;;;;3.42;1.92;;;;;;;;;;10378734;28;20087;-74
2022/06/19 17:52:16;;;;;;;5.78;1.27;;;;;;;;;;10353984;28;20029;-74
2022/06/19 17:57:29;;;;;;;2.88;1.20;;;;;;;;;;10392576;28;20056;-77
2022/06/19 18:02:29;;;;;;;3.20;1.48;;;;;;;;;;10398004;28;20033;-76
2022/06/19 18:07:32;;;;;;;2.55;1.67;;;;;;;;;;10376923;28;20052;-75
2022/06/19 18:12:38;;;;;;;3.42;1.65;;;;;;;;;;10381102;28;20180;-77
2022/06/19 18:22:59;;;;;;;5.28;1.63;;;;;;;;;;10404640;28;20057;-75
2022/06/19 18:28:02;;;;;;;4.00;1.50;;;;;;;;;;10385420;28;20158;-75
2022/06/19 18:33:02;;;;;;;3.35;1.67;;;;;;;;;;10375654;28;20032;-76
2022/06/19 18:38:02;;;;;;;1.90;1.52;;;;;;;;;;10399556;28;20026;-78
2022/06/19 18:43:03;;;;;;;4.00;2.60;;;;;;;;;;10388652;28;20024;-74
2022/06/19 18:48:05;;;;;;;3.72;2.17;;;;;;;;;;10380327;28;20029;-76
2022/06/19 18:53:05;;;;;;;4.20;2.97;;;;;;;;;;10375527;28;20105;-73
2022/06/19 18:58:13;;;;;;;8.45;2.30;;;;;;;;;;10373916;28;20112;-73
2022/06/19 19:03:13;;;;;;;5.00;2.50;;;;;;;;;;10382385;28;20055;-78
2022/06/19 19:08:22;;;;;;;20.75;2.70;;;;;;;;;;10353743;28;20038;-71
2022/06/19 19:13:49;;;;;;;5.03;2.72;;;;;;;;;;10324626;28;20496;-76
2022/06/19 19:18:49;;;;;;;4.47;2.53;;;;;;;;;;10359133;28;20041;-76
2022/06/19 19:23:49;;;;;;;3.88;2.55;;;;;;;;;;10352906;28;20619;-72
2022/06/19 19:28:51;;;;;;;11.07;2.75;;;;;;;;;;10348427;28;20034;-75
2022/06/19 19:33:53;;;;;;;4.05;2.92;;;;;;;;;;10341164;28;20018;-70
2022/06/19 19:38:54;;;;;;;11.45;2.78;;;;;;;;;;10345480;28;20395;-72
2022/06/19 19:43:54;;;;;;;9.65;2.38;;;;;;;;;;10323007;28;20022;-74
2022/06/19 19:48:55;;;;;;;8.77;3.95;;;;;;;;;;10352819;28;20491;-78
2022/06/19 19:53:56;;;;;;;3.97;2.40;;;;;;;;;;10340581;28;20056;-74
2022/06/19 19:58:56;;;;;;;7.40;2.83;;;;;;;;;;10357527;28;20069;-77
2022/06/19 20:03:56;;;;;;;3.77;2.43;;;;;;;;;;10341989;28;20419;-77
2022/06/19 20:14:16;;;;;;;8.82;2.33;;;;;;;;;;10401031;28;20037;-78
2022/06/19 20:19:17;;;;;;;4.40;2.53;;;;;;;;;;10387536;28;20033;-74
2022/06/19 20:24:21;;;;;;;8.98;5.10;;;;;;;;;;10392432;28;20013;-74
2022/06/19 20:29:24;;;;;;;3.25;1.90;;;;;;;;;;10387333;28;20036;-76
2022/06/19 20:34:27;;;;;;;3.50;2.25;;;;;;;;;;10403758;28;20120;-74
2022/06/19 20:39:27;;;;;;;3.00;2.25;;;;;;;;;;10383127;28;20048;-78
2022/06/19 20:44:28;;;;;;;3.53;2.25;;;;;;;;;;10400087;28;20025;-77
2022/06/19 20:49:33;;;;;;;2.90;1.73;;;;;;;;;;10397229;28;20475;-78
2022/06/19 20:54:33;;;;;;;6.05;2.00;;;;;;;;;;10388006;28;20065;-77
2022/06/19 20:59:33;;;;;;;2.13;1.83;;;;;;;;;;10380929;28;20086;-74
2022/06/19 21:04:34;;;;;;;2.35;1.60;;;;;;;;;;10379587;28;20029;-73
2022/06/19 21:09:34;;;;;;;2.80;1.90;;;;;;;;;;10374777;28;20074;-74
2022/06/19 21:14:34;;;;;;;2.00;1.90;;;;;;;;;;10376197;28;20034;-73
2022/06/19 21:19:35;;;;;;;5.43;2.03;;;;;;;;;;10374790;28;20025;-72
2022/06/19 21:24:35;;;;;;;2.22;1.98;;;;;;;;;;10376252;28;20434;-78
2022/06/19 21:29:35;;;;;;;2.50;1.67;;;;;;;;;;10376424;28;20026;-74
2022/06/19 21:34:36;;;;;;;3.87;2.00;;;;;;;;;;10374603;28;20596;-72
2022/06/19 21:39:36;;;;;;;6.32;1.40;;;;;;;;;;10376037;28;20033;-81
2022/06/19 21:44:36;;;;;;;3.75;2.13;;;;;;;;;;10475956;23;20059;-74
2022/06/19 21:49:36;;;;;;;2.58;1.60;;;;;;;;;;10372837;28;20420;-73
2022/06/19 21:54:37;;;;;;;2.92;2.10;;;;;;;;;;10376549;28;20052;-73
2022/06/19 21:59:37;;;;;;;1.75;1.38;;;;;;;;;;10393356;28;20028;-77
2022/06/19 22:04:39;;;;;;;2.20;2.00;;;;;;;;;;10366480;28;20030;-73
2022/06/19 22:14:58;;;;;;;2.97;2.03;;;;;;;;;;10361083;28;20109;-76
2022/06/19 22:19:59;;;;;;;2.60;1.63;;;;;;;;;;10342224;28;20022;-73
2022/06/19 22:24:59;;;;;;;2.75;1.45;;;;;;;;;;10342227;28;20021;-73
2022/06/19 22:30:01;;;;;;;4.63;1.98;;;;;;;;;;10342849;28;20029;-77
2022/06/19 22:35:01;;;;;;;2.55;1.90;;;;;;;;;;10341323;28;20026;-74
2022/06/19 22:40:02;;;;;;;3.25;2.05;;;;;;;;;;10340832;28;20053;-79
2022/06/19 22:45:03;;;;;;;3.58;1.50;;;;;;;;;;10358353;28;20543;-75
2022/06/19 22:50:03;;;;;;;1.73;1.58;;;;;;;;;;10340397;28;20037;-73
2022/06/19 22:55:04;;;;;;;1.90;1.60;;;;;;;;;;10357568;28;20018;-73
2022/06/19 23:05:27;;;;;;;3.55;1.75;;;;;;;;;;10357591;28;20021;-79
2022/06/19 23:10:28;;;;;;;2.90;1.90;;;;;;;;;;10339687;28;20025;-73
2022/06/19 23:15:30;;;;;;;2.90;2.30;;;;;;;;;;10356193;28;20030;-80
2022/06/19 23:20:53;;;;;;;5.45;1.73;;;;;;;;;;10340490;28;20029;-77
2022/06/19 23:25:56;;;;;;;5.43;2.22;;;;;;;;;;10360442;28;20109;-76
2022/06/19 23:30:56;;;;;;;2.40;2.15;;;;;;;;;;10349616;28;20022;-76
2022/06/19 23:35:56;;;;;;;3.78;1.98;;;;;;;;;;10343795;28;20032;-77
2022/06/19 23:41:04;;;;;;;4.90;2.05;;;;;;;;;;10339825;28;20352;-79
2022/06/19 23:46:07;;;;;;;2.33;2.13;;;;;;;;;;10370125;28;20050;-77
2022/06/19 23:51:12;;;;;;;2.85;2.28;;;;;;;;;;10350573;28;20049;-77
2022/06/19 23:56:15;;;;;;;4.85;2.25;;;;;;;;;;10339106;28;20514;-75
